createdAt,value
2023-03-20T00:01:46.295Z,98593.13
2023-03-20T00:04:19.005Z,98587.97
2023-03-20T00:06:58.279Z,98581.13
2023-03-20T00:09:35.325Z,98590.34
2023-03-20T00:12:10.861Z,98580.69
2023-03-20T00:14:41.809Z,98568.00
2023-03-20T00:17:23.724Z,98585.75
2023-03-20T00:19:54.274Z,98590.03
2023-03-20T00:28:01.820Z,98593.59
2023-03-20T00:30:48.577Z,98593.09
2023-03-20T00:33:17.259Z,98592.09
2023-03-20T00:35:48.166Z,98592.59
2023-03-20T00:38:22.264Z,98578.44
2023-03-20T00:40:56.441Z,98562.06
2023-03-20T00:43:25.327Z,98586.09
2023-03-20T00:46:04.373Z,98563.09
2023-03-20T00:48:48.927Z,98576.81
2023-03-20T00:51:27.017Z,98553.44
2023-03-20T00:54:05.119Z,98557.53
2023-03-20T00:56:37.587Z,98574.63
2023-03-20T00:59:27.750Z,98571.59
2023-03-20T01:02:00.944Z,98565.03
2023-03-20T01:04:49.555Z,98567.03
2023-03-20T01:07:19.995Z,98555.66
2023-03-20T01:09:57.081Z,98577.97
2023-03-20T01:12:36.083Z,98572.94
2023-03-20T01:15:05.859Z,98567.72
2023-03-20T01:17:36.556Z,98557.88
2023-03-20T01:20:15.043Z,98563.34
2023-03-20T01:22:48.762Z,98570.03
2023-03-20T01:25:35.428Z,98565.19
2023-03-20T01:28:25.330Z,98565.09
2023-03-20T01:30:58.801Z,98565.81
2023-03-20T01:33:34.233Z,98569.63
2023-03-20T01:36:03.541Z,98565.41
2023-03-20T01:38:36.113Z,98571.06
2023-03-20T01:41:21.698Z,98576.91
2023-03-20T01:44:06.148Z,98580.75
2023-03-20T01:46:40.065Z,98584.19
2023-03-20T01:49:28.663Z,98573.38
2023-03-20T01:52:07.970Z,98585.50
2023-03-20T01:54:43.122Z,98578.84
2023-03-20T01:57:31.545Z,98578.19
2023-03-20T02:00:15.327Z,98577.53
2023-03-20T02:02:51.096Z,98565.84
2023-03-20T02:05:57.753Z,98562.28
2023-03-20T02:08:38.516Z,98555.47
2023-03-20T02:11:10.470Z,98554.91
2023-03-20T02:13:46.405Z,98554.75
2023-03-20T02:16:22.885Z,98553.47
2023-03-20T02:19:06.450Z,98558.13
2023-03-20T02:21:49.188Z,98553.75
2023-03-20T02:24:40.275Z,98553.50
2023-03-20T02:27:52.799Z,98550.06
2023-03-20T02:30:45.532Z,98556.56
2023-03-20T02:33:54.931Z,98558.44
2023-03-20T02:36:56.260Z,98550.53
2023-03-20T02:39:55.944Z,98554.97
2023-03-20T02:42:50.729Z,98561.78
2023-03-20T02:45:39.618Z,98546.50
2023-03-20T02:49:02.820Z,98551.28
2023-03-20T02:51:50.304Z,98549.22
2023-03-20T02:54:40.689Z,98547.13
2023-03-20T02:58:00.348Z,98539.88
2023-03-20T03:00:42.931Z,98551.22
2023-03-20T03:03:58.314Z,98554.50
2023-03-20T03:06:39.785Z,98552.44
2023-03-20T03:09:34.623Z,98552.31
2023-03-20T03:12:22.007Z,98550.44
2023-03-20T03:15:05.836Z,98558.81
2023-03-20T03:17:38.679Z,98558.25
2023-03-20T03:20:48.151Z,98560.03
2023-03-20T03:23:45.030Z,98568.47
2023-03-20T03:26:45.420Z,98562.38
2023-03-20T03:29:25.570Z,98567.72
2023-03-20T03:31:56.680Z,98569.91
2023-03-20T03:34:27.162Z,98560.72
2023-03-20T03:37:46.345Z,98571.00
2023-03-20T03:40:35.100Z,98572.09
2023-03-20T03:43:38.177Z,98568.03
2023-03-20T03:46:32.509Z,98557.25
2023-03-20T03:49:01.767Z,98573.22
2023-03-20T03:51:37.416Z,98574.84
2023-03-20T03:54:26.842Z,98572.38
2023-03-20T03:57:29.786Z,98573.63
2023-03-20T04:00:07.561Z,98577.75
2023-03-20T04:03:06.357Z,98581.94
2023-03-20T04:05:40.898Z,98589.03
2023-03-20T04:08:09.875Z,98577.28
2023-03-20T04:10:42.845Z,98581.94
2023-03-20T04:13:27.675Z,98587.94
2023-03-20T04:18:58.857Z,98583.00
2023-03-20T04:21:30.014Z,98583.09
2023-03-20T04:24:01.026Z,98564.22
2023-03-20T04:26:28.901Z,98577.19
2023-03-20T04:29:04.186Z,98588.41
2023-03-20T04:32:13.562Z,98590.94
2023-03-20T04:35:04.846Z,98589.50
2023-03-20T04:37:55.440Z,98590.09
2023-03-20T04:40:34.022Z,98593.34
2023-03-20T04:43:07.422Z,98593.31
2023-03-20T04:45:39.421Z,98592.59
2023-03-20T04:48:14.855Z,98589.00
2023-03-20T04:50:50.828Z,98591.69
2023-03-20T04:53:27.687Z,98585.59
2023-03-20T04:58:43.126Z,98559.88
2023-03-20T05:01:15.305Z,98587.78
2023-03-20T05:03:45.438Z,98580.22
2023-03-20T05:06:18.663Z,98586.53
2023-03-20T05:08:52.820Z,98592.31
2023-03-20T05:11:23.593Z,98592.91
2023-03-20T05:14:11.876Z,98594.84
2023-03-20T05:17:02.157Z,98605.50
2023-03-20T05:19:55.632Z,98597.53
2023-03-20T05:22:48.619Z,98603.25
2023-03-20T05:25:47.613Z,98602.69
2023-03-20T05:28:44.104Z,98601.94
2023-03-20T05:31:47.379Z,98600.50
2023-03-20T05:34:36.863Z,98606.50
2023-03-20T05:37:29.940Z,98607.28
2023-03-20T05:40:34.000Z,98605.16
2023-03-20T05:43:22.873Z,98585.72
2023-03-20T05:46:24.410Z,98602.38
2023-03-20T05:49:29.021Z,98605.19
2023-03-20T05:52:24.237Z,98605.50
2023-03-20T05:55:20.296Z,98612.59
2023-03-20T05:58:31.655Z,98608.69
2023-03-20T06:01:19.611Z,98605.06
2023-03-20T06:04:11.033Z,98595.53
2023-03-20T06:07:10.630Z,98612.41
2023-03-20T06:12:30.984Z,98607.59
2023-03-20T06:15:01.902Z,98608.66
2023-03-20T06:17:37.578Z,98612.72
2023-03-20T06:20:12.501Z,98616.25
2023-03-20T06:22:53.563Z,98615.09
2023-03-20T06:25:25.514Z,98614.22
2023-03-20T06:28:03.947Z,98615.34
2023-03-20T06:30:36.018Z,98608.28
2023-03-20T06:33:19.815Z,98627.47
2023-03-20T06:36:10.912Z,98627.59
2023-03-20T06:38:48.348Z,98640.28
2023-03-20T06:41:33.674Z,98571.19
2023-03-20T06:44:09.104Z,98636.66
2023-03-20T06:47:21.844Z,98641.66
2023-03-20T06:49:54.774Z,98644.97
2023-03-20T06:52:23.663Z,98640.28
2023-03-20T06:55:20.296Z,98629.31
2023-03-20T06:57:50.156Z,98637.84
2023-03-20T07:00:22.862Z,98641.66
2023-03-20T07:02:52.166Z,98639.97
2023-03-20T07:05:23.746Z,98637.72
2023-03-20T07:07:55.339Z,98635.69
2023-03-20T07:10:41.814Z,98639.25
2023-03-20T07:13:19.717Z,98647.78
2023-03-20T07:16:03.641Z,98638.84
2023-03-20T07:18:58.978Z,98634.66
2023-03-20T07:21:30.134Z,98632.09
2023-03-20T07:24:03.006Z,98640.97
2023-03-20T07:26:36.321Z,98638.88
2023-03-20T07:29:15.265Z,98619.63
2023-03-20T07:31:46.836Z,98629.25
2023-03-20T07:34:33.870Z,98632.94
2023-03-20T07:37:10.343Z,98640.88
2023-03-20T07:39:45.159Z,98643.34
2023-03-20T07:42:42.481Z,98634.13
2023-03-20T07:45:32.821Z,98649.25
2023-03-20T07:48:03.313Z,98653.03
2023-03-20T07:50:36.608Z,98643.47
2023-03-20T07:53:07.931Z,98650.63
2023-03-20T07:55:45.596Z,98648.34
2023-03-20T07:58:15.724Z,98652.72
2023-03-20T08:00:52.719Z,98603.69
2023-03-20T08:03:31.453Z,98658.59
2023-03-20T08:06:07.989Z,98648.81
2023-03-20T08:08:55.442Z,98656.69
2023-03-20T08:11:34.256Z,98663.41
2023-03-20T08:14:08.485Z,98660.38
2023-03-20T08:16:37.768Z,98653.84
2023-03-20T08:19:12.574Z,98662.38
2023-03-20T08:21:46.392Z,98660.63
2023-03-20T08:24:23.660Z,98655.78
2023-03-20T08:26:58.074Z,98662.81
2023-03-20T08:32:16.704Z,98659.66
2023-03-20T08:34:46.625Z,98660.38
2023-03-20T08:37:25.699Z,98664.75
2023-03-20T08:40:06.794Z,98666.81
2023-03-20T08:42:45.388Z,98665.25
2023-03-20T08:45:31.350Z,98674.44
2023-03-20T08:48:03.594Z,98676.69
2023-03-20T08:50:34.614Z,98675.50
2023-03-20T08:53:08.380Z,98664.66
2023-03-20T08:55:36.850Z,98655.94
2023-03-20T08:58:24.881Z,98659.50
2023-03-20T09:00:59.178Z,98658.84
2023-03-20T09:03:30.314Z,98646.66
2023-03-20T09:06:02.299Z,98647.56
2023-03-20T09:08:32.404Z,98672.06
2023-03-20T09:11:18.615Z,98660.09
2023-03-20T09:13:50.096Z,98681.72
2023-03-20T09:16:20.001Z,98675.94
2023-03-20T09:18:51.616Z,98673.16
2023-03-20T09:21:29.208Z,98667.41
2023-03-20T09:23:59.913Z,98676.94
2023-03-20T09:26:37.759Z,98677.09
2023-03-20T09:29:09.451Z,98676.00
2023-03-20T09:31:38.840Z,98676.63
2023-03-20T09:34:09.684Z,98673.69
2023-03-20T09:36:47.351Z,98668.81
2023-03-20T09:39:15.581Z,98664.97
2023-03-20T09:41:57.239Z,98662.06
2023-03-20T09:44:57.573Z,98650.41
2023-03-20T09:48:00.807Z,98657.97
2023-03-20T09:50:43.709Z,98646.97
2023-03-20T09:53:24.912Z,98659.91
2023-03-20T09:55:56.634Z,98650.16
2023-03-20T09:58:28.787Z,98653.16
2023-03-20T10:01:06.855Z,98645.63
2023-03-20T10:04:03.116Z,98649.31
2023-03-20T10:06:32.725Z,98646.59
2023-03-20T10:09:12.027Z,98622.03
2023-03-20T10:12:03.740Z,98644.50
2023-03-20T10:14:34.651Z,98651.75
2023-03-20T10:17:24.594Z,98643.69
2023-03-20T10:20:01.868Z,98645.50
2023-03-20T10:22:38.015Z,98636.81
2023-03-20T10:25:42.157Z,98637.56
2023-03-20T10:28:30.690Z,98629.06
2023-03-20T10:31:32.115Z,98589.31
2023-03-20T10:34:49.429Z,98626.91
2023-03-20T10:38:02.818Z,98621.53
2023-03-20T10:40:44.207Z,98617.94
2023-03-20T10:43:24.595Z,98625.91
2023-03-20T10:46:30.709Z,98610.56
2023-03-20T10:49:30.400Z,98611.25
2023-03-20T10:52:08.339Z,98612.13
2023-03-20T10:54:50.826Z,98609.91
2023-03-20T10:57:35.074Z,98609.22
2023-03-20T11:00:13.617Z,98601.00
2023-03-20T11:02:49.785Z,98592.56
2023-03-20T11:05:39.316Z,98602.59
2023-03-20T11:08:17.031Z,98597.44
2023-03-20T11:11:00.915Z,98589.41
2023-03-20T11:13:46.083Z,98585.09
2023-03-20T11:16:26.197Z,98591.53
2023-03-20T11:18:59.839Z,98570.09
2023-03-20T11:21:34.778Z,98572.91
2023-03-20T11:24:04.129Z,98572.78
2023-03-20T11:26:49.427Z,98557.53
2023-03-20T11:29:45.605Z,98571.94
2023-03-20T11:32:51.194Z,98566.06
2023-03-20T11:35:33.196Z,98572.53
2023-03-20T11:38:20.845Z,98570.19
2023-03-20T11:40:58.193Z,98571.88
2023-03-20T11:43:37.324Z,98563.69
2023-03-20T11:46:19.193Z,98564.59
2023-03-20T11:48:48.391Z,98559.63
2023-03-20T11:51:28.561Z,98562.06
2023-03-20T11:54:22.510Z,98552.06
2023-03-20T11:57:24.327Z,98550.50
2023-03-20T12:00:00.138Z,98547.13
2023-03-20T12:02:45.493Z,98548.78
2023-03-20T12:05:53.020Z,98546.84
2023-03-20T12:08:30.536Z,98547.47
2023-03-20T12:11:25.978Z,98537.69
2023-03-20T12:14:04.646Z,98536.63
2023-03-20T12:16:40.009Z,98528.28
2023-03-20T12:19:20.925Z,98533.31
2023-03-20T12:22:07.954Z,98533.28
2023-03-20T12:24:56.205Z,98522.72
2023-03-20T12:27:39.291Z,98526.50
2023-03-20T12:30:39.529Z,98526.41
2023-03-20T12:33:36.391Z,98529.75
2023-03-20T12:36:13.815Z,98492.00
2023-03-20T12:38:55.237Z,98526.34
2023-03-20T12:41:35.605Z,98529.28
2023-03-20T12:44:27.957Z,98528.97
2023-03-20T12:47:49.078Z,98511.00
2023-03-20T12:50:47.305Z,98531.63
2023-03-20T12:53:24.351Z,98525.38
2023-03-20T12:56:32.537Z,98529.66
2023-03-20T12:59:11.338Z,98532.28
2023-03-20T13:01:59.991Z,98522.13
2023-03-20T13:04:58.022Z,98522.47
2023-03-20T13:08:10.952Z,98522.28
2023-03-20T13:14:09.858Z,98518.38
2023-03-20T13:16:48.543Z,98523.94
2023-03-20T13:19:37.718Z,98517.72
2023-03-20T13:22:26.697Z,98515.59
2023-03-20T13:25:25.854Z,98521.81
2023-03-20T13:28:21.601Z,98522.94
2023-03-20T13:34:33.321Z,98519.19
2023-03-20T13:37:24.343Z,98518.03
2023-03-20T13:40:43.800Z,98525.22
2023-03-20T13:43:57.895Z,98515.72
2023-03-20T13:46:53.116Z,98512.28
2023-03-20T13:49:40.124Z,98514.94
2023-03-20T13:52:27.691Z,98514.25
2023-03-20T13:55:28.741Z,98511.16
2023-03-20T13:58:53.285Z,98512.66
2023-03-20T14:02:03.650Z,98515.25
2023-03-20T14:04:36.971Z,98519.34
2023-03-20T14:07:40.728Z,98510.53
2023-03-20T14:10:26.659Z,98503.16
2023-03-20T14:13:21.825Z,98504.31
2023-03-20T14:16:02.051Z,98496.00
2023-03-20T14:18:35.183Z,98495.19
2023-03-20T14:21:15.632Z,98493.38
2023-03-20T14:23:51.105Z,98492.72
2023-03-20T14:26:30.637Z,98500.22
2023-03-20T14:29:44.498Z,98501.88
2023-03-20T14:32:21.702Z,98501.69
2023-03-20T14:35:02.784Z,98492.22
2023-03-20T14:37:55.800Z,98492.38
2023-03-20T14:40:39.371Z,98489.59
2023-03-20T14:44:05.948Z,98491.22
2023-03-20T14:47:25.960Z,98488.63
2023-03-20T14:50:04.743Z,98482.25
2023-03-20T14:53:23.308Z,98489.44
2023-03-20T14:56:11.827Z,98488.94
2023-03-20T14:58:58.196Z,98491.72
2023-03-20T15:02:03.498Z,98487.47
2023-03-20T15:04:40.433Z,98483.56
2023-03-20T15:07:21.422Z,98485.38
2023-03-20T15:10:01.833Z,98496.47
2023-03-20T15:12:37.636Z,98487.47
2023-03-20T15:15:26.297Z,98500.22
2023-03-20T15:17:56.244Z,98496.00
2023-03-20T15:20:40.477Z,98498.59
2023-03-20T15:23:13.880Z,98500.00
2023-03-20T15:26:03.211Z,98500.31
2023-03-20T15:28:38.344Z,98490.84
2023-03-20T15:31:23.333Z,98501.47
2023-03-20T15:33:54.858Z,98512.41
2023-03-20T15:36:30.892Z,98517.59
2023-03-20T15:39:27.186Z,98515.81
2023-03-20T15:42:09.292Z,98510.78
2023-03-20T15:44:39.812Z,98512.72
2023-03-20T15:47:28.763Z,98503.28
2023-03-20T15:50:10.828Z,98502.13
2023-03-20T15:52:55.029Z,98509.78
2023-03-20T15:55:33.078Z,98513.53
2023-03-20T15:58:08.648Z,98508.94
2023-03-20T16:00:49.430Z,98500.78
2023-03-20T16:03:22.232Z,98495.72
2023-03-20T16:06:02.281Z,98507.91
2023-03-20T16:08:37.055Z,98506.13
2023-03-20T16:11:36.005Z,98509.69
2023-03-20T16:14:16.221Z,98507.41
2023-03-20T16:16:45.635Z,98490.41
2023-03-20T16:19:16.067Z,98507.03
2023-03-20T16:22:34.917Z,98513.06
2023-03-20T16:25:24.382Z,98514.69
2023-03-20T16:27:55.813Z,98497.19
2023-03-20T16:30:34.103Z,98516.50
2023-03-20T16:33:19.223Z,98519.13
2023-03-20T16:35:50.925Z,98510.88
2023-03-20T16:38:31.557Z,98527.84
2023-03-20T16:41:41.166Z,98527.69
2023-03-20T16:44:40.433Z,98526.50
2023-03-20T16:47:49.947Z,98531.38
2023-03-20T16:50:30.663Z,98535.56
2023-03-20T16:53:11.064Z,98539.38
2023-03-20T16:55:51.588Z,98544.91
2023-03-20T16:58:28.383Z,98546.31
2023-03-20T17:01:13.945Z,98553.22
2023-03-20T17:03:52.575Z,98554.44
2023-03-20T17:12:19.166Z,98545.91
2023-03-20T17:14:51.715Z,98548.09
2023-03-20T17:17:30.192Z,98544.09
2023-03-20T17:20:04.826Z,98556.34
2023-03-20T17:22:41.449Z,98565.47
2023-03-20T17:25:20.107Z,98565.16
2023-03-20T17:27:50.850Z,98569.56
2023-03-20T17:30:25.745Z,98575.69
2023-03-20T17:32:56.862Z,98555.00
2023-03-20T17:38:20.361Z,98578.31
2023-03-20T17:40:57.561Z,98578.50
2023-03-20T17:43:31.214Z,98585.41
2023-03-20T17:46:04.877Z,98578.81
2023-03-20T17:48:38.638Z,98576.72
2023-03-20T17:51:08.120Z,98577.09
2023-03-20T17:53:40.127Z,98576.28
2023-03-20T17:56:22.961Z,98514.81
2023-03-20T17:58:53.891Z,98572.38
2023-03-20T18:01:33.207Z,98578.84
2023-03-20T18:04:07.177Z,98574.22
2023-03-20T18:06:38.248Z,98562.88
2023-03-20T18:09:08.947Z,98571.56
2023-03-20T18:14:26.299Z,98577.31
2023-03-20T18:16:56.633Z,98570.47
2023-03-20T18:19:30.884Z,98574.44
2023-03-20T18:22:09.298Z,98578.53
2023-03-20T18:24:42.762Z,98579.16
2023-03-20T18:27:15.710Z,98590.31
2023-03-20T18:29:47.575Z,98584.91
2023-03-20T18:32:28.544Z,98591.75
2023-03-20T18:35:10.104Z,98588.97
2023-03-20T18:38:04.714Z,98567.00
2023-03-20T18:40:38.112Z,98589.88
2023-03-20T18:43:12.232Z,98569.00
2023-03-20T18:45:46.258Z,98586.75
2023-03-20T18:48:18.447Z,98578.78
2023-03-20T18:51:06.304Z,98590.53
2023-03-20T18:53:40.077Z,98559.38
2023-03-20T18:56:24.356Z,98584.00
2023-03-20T18:59:02.323Z,98592.78
2023-03-20T19:01:41.705Z,98585.09
2023-03-20T19:04:11.270Z,98571.53
2023-03-20T19:06:43.325Z,98554.63
2023-03-20T19:09:13.754Z,98554.00
2023-03-20T19:11:43.034Z,98571.47
2023-03-20T19:14:21.013Z,98569.53
2023-03-20T19:19:38.693Z,98560.41
2023-03-20T19:24:57.356Z,98586.94
2023-03-20T19:27:28.374Z,98591.13
2023-03-20T19:30:02.748Z,98596.44
2023-03-20T19:32:34.065Z,98603.91
2023-03-20T19:35:43.644Z,98603.59
2023-03-20T19:37:57.117Z,98580.13
2023-03-20T19:41:06.581Z,98606.91
2023-03-20T19:43:52.158Z,98602.66
2023-03-20T19:46:42.518Z,98609.59
2023-03-20T19:49:36.000Z,98613.72
2023-03-20T19:52:07.292Z,98541.09
2023-03-20T19:54:53.006Z,98609.34
2023-03-20T19:57:33.085Z,98602.91
2023-03-20T20:00:55.013Z,98606.00
2023-03-20T20:03:07.233Z,98603.22
2023-03-20T20:05:45.291Z,98582.56
2023-03-20T20:08:33.400Z,98593.69
2023-03-20T20:11:12.957Z,98605.44
2023-03-20T20:16:41.117Z,98608.16
2023-03-20T20:19:24.944Z,98615.34
2023-03-20T20:22:24.810Z,98619.97
2023-03-20T20:24:50.280Z,98610.25
2023-03-20T20:27:20.753Z,98622.47
2023-03-20T20:29:56.970Z,98615.22
2023-03-20T20:32:27.929Z,98609.53
2023-03-20T20:38:33.481Z,98602.84
2023-03-20T20:40:48.327Z,98608.69
2023-03-20T20:43:48.497Z,98609.28
2023-03-20T20:46:11.573Z,98607.66
2023-03-20T20:48:57.334Z,98606.78
2023-03-20T20:51:31.127Z,98611.59
2023-03-20T20:54:01.205Z,98611.63
2023-03-20T20:56:31.869Z,98617.91
2023-03-20T20:59:15.038Z,98619.13
2023-03-20T21:01:58.585Z,98622.78
2023-03-20T21:04:32.228Z,98627.47
2023-03-20T21:07:11.570Z,98636.91
2023-03-20T21:09:46.747Z,98627.31
2023-03-20T21:12:34.752Z,98634.44
2023-03-20T21:15:12.191Z,98636.00
2023-03-20T21:17:59.478Z,98642.03
2023-03-20T21:20:33.635Z,98623.66
2023-03-20T21:23:08.262Z,98638.84
2023-03-20T21:25:44.662Z,98615.50
2023-03-20T21:28:18.480Z,98634.97
2023-03-20T21:31:12.401Z,98642.41
2023-03-20T21:33:46.197Z,98647.31
2023-03-20T21:36:14.185Z,98646.16
2023-03-20T21:39:14.438Z,98638.00
2023-03-20T21:41:38.976Z,98643.22
2023-03-20T21:44:46.082Z,98644.03
2023-03-20T21:53:34.942Z,98642.91
2023-03-20T22:05:09.812Z,98636.38
2023-03-20T22:10:55.814Z,98636.09
2023-03-20T22:13:47.311Z,98632.78
2023-03-20T22:17:06.453Z,98635.78
2023-03-20T22:22:13.781Z,98639.63
2023-03-20T22:25:11.427Z,98622.06
2023-03-20T22:31:17.229Z,98627.22
2023-03-20T22:34:16.208Z,98636.72
2023-03-20T22:37:09.337Z,98628.13
2023-03-20T22:40:03.279Z,98643.03
2023-03-20T22:45:09.635Z,98637.88
2023-03-20T22:47:43.052Z,98618.09
2023-03-20T22:50:26.179Z,98637.41
2023-03-20T22:53:08.329Z,98568.19
2023-03-20T22:55:39.288Z,98637.97
2023-03-20T23:00:58.518Z,98633.56
2023-03-20T23:03:41.019Z,98621.75
2023-03-20T23:06:33.206Z,98630.19
2023-03-20T23:09:14.508Z,98637.31
2023-03-20T23:14:44.859Z,98625.84
2023-03-20T23:17:16.775Z,98636.31
2023-03-20T23:19:52.131Z,98632.19
2023-03-20T23:22:26.132Z,98603.31
2023-03-20T23:25:23.962Z,98632.44
2023-03-20T23:28:09.176Z,98628.63
2023-03-20T23:30:51.795Z,98630.25
2023-03-20T23:33:33.879Z,98622.53
2023-03-20T23:36:19.010Z,98619.50
2023-03-20T23:38:56.800Z,98625.41
2023-03-20T23:41:53.685Z,98595.78
2023-03-20T23:44:19.108Z,98625.69
2023-03-20T23:46:49.915Z,98624.38
2023-03-20T23:49:26.235Z,98626.34
2023-03-20T23:52:05.495Z,98624.97
2023-03-20T23:54:43.696Z,98620.69
2023-03-20T23:57:25.234Z,98584.06
2023-03-20T23:59:58.986Z,98623.00
